sensor_id;sensor_type;location;lat;lon;timestamp;temperature;humidity
56076;DHT22;41951;49.022;12.066;2023-05-07T00:02:02;12.80;99.90
56076;DHT22;41951;49.022;12.066;2023-05-07T00:04:29;12.70;99.90
56076;DHT22;41951;49.022;12.066;2023-05-07T00:07:01;12.70;99.90
56076;DHT22;41951;49.022;12.066;2023-05-07T00:09:26;12.70;99.90
56076;DHT22;41951;49.022;12.066;2023-05-07T00:11:52;12.70;99.90
56076;DHT22;41951;49.022;12.066;2023-05-07T00:14:18;12.70;99.90
56076;DHT22;41951;49.022;12.066;2023-05-07T00:16:43;12.80;99.90
56076;DHT22;41951;49.022;12.066;2023-05-07T00:19:09;12.70;99.90
56076;DHT22;41951;49.022;12.066;2023-05-07T00:21:35;12.70;99.90
56076;DHT22;41951;49.022;12.066;2023-05-07T00:24:01;12.60;99.90
56076;DHT22;41951;49.022;12.066;2023-05-07T00:26:26;12.50;99.90
56076;DHT22;41951;49.022;12.066;2023-05-07T00:28:52;12.50;99.90
56076;DHT22;41951;49.022;12.066;2023-05-07T00:31:17;12.40;99.90
56076;DHT22;41951;49.022;12.066;2023-05-07T00:33:43;12.30;99.90
56076;DHT22;41951;49.022;12.066;2023-05-07T00:36:08;12.20;99.90
56076;DHT22;41951;49.022;12.066;2023-05-07T00:38:34;12.20;99.90
56076;DHT22;41951;49.022;12.066;2023-05-07T00:41:00;12.10;99.90
56076;DHT22;41951;49.022;12.066;2023-05-07T00:43:27;12.10;99.90
56076;DHT22;41951;49.022;12.066;2023-05-07T00:45:53;12.10;99.90
56076;DHT22;41951;49.022;12.066;2023-05-07T00:48:19;12.10;99.90
56076;DHT22;41951;49.022;12.066;2023-05-07T00:50:45;12.10;99.90
56076;DHT22;41951;49.022;12.066;2023-05-07T00:53:11;12.10;99.90
56076;DHT22;41951;49.022;12.066;2023-05-07T00:55:37;12.10;99.90
56076;DHT22;41951;49.022;12.066;2023-05-07T00:58:03;12.00;99.90
56076;DHT22;41951;49.022;12.066;2023-05-07T01:00:28;12.00;99.90
56076;DHT22;41951;49.022;12.066;2023-05-07T01:03:00;12.00;99.90
56076;DHT22;41951;49.022;12.066;2023-05-07T01:05:29;12.10;99.90
56076;DHT22;41951;49.022;12.066;2023-05-07T01:07:56;12.10;99.90
56076;DHT22;41951;49.022;12.066;2023-05-07T01:10:23;12.10;99.90
56076;DHT22;41951;49.022;12.066;2023-05-07T01:12:52;12.10;99.90
56076;DHT22;41951;49.022;12.066;2023-05-07T01:15:19;12.00;99.90
56076;DHT22;41951;49.022;12.066;2023-05-07T01:17:47;12.00;99.90
56076;DHT22;41951;49.022;12.066;2023-05-07T01:20:13;11.90;99.90
56076;DHT22;41951;49.022;12.066;2023-05-07T01:22:39;12.00;99.90
56076;DHT22;41951;49.022;12.066;2023-05-07T01:25:06;12.00;99.90
56076;DHT22;41951;49.022;12.066;2023-05-07T01:27:33;12.00;99.90
56076;DHT22;41951;49.022;12.066;2023-05-07T01:29:59;12.00;99.90
56076;DHT22;41951;49.022;12.066;2023-05-07T01:32:33;12.00;99.90
56076;DHT22;41951;49.022;12.066;2023-05-07T01:35:02;12.00;99.90
56076;DHT22;41951;49.022;12.066;2023-05-07T01:37:30;12.10;99.90
56076;DHT22;41951;49.022;12.066;2023-05-07T01:39:56;12.00;99.90
56076;DHT22;41951;49.022;12.066;2023-05-07T01:42:22;12.10;99.90
56076;DHT22;41951;49.022;12.066;2023-05-07T01:44:47;12.10;99.90
56076;DHT22;41951;49.022;12.066;2023-05-07T01:47:14;12.00;99.90
56076;DHT22;41951;49.022;12.066;2023-05-07T01:49:40;12.00;99.90
56076;DHT22;41951;49.022;12.066;2023-05-07T01:52:06;12.00;99.90
56076;DHT22;41951;49.022;12.066;2023-05-07T01:54:31;12.00;99.90
56076;DHT22;41951;49.022;12.066;2023-05-07T01:56:57;11.90;99.90
56076;DHT22;41951;49.022;12.066;2023-05-07T01:59:23;11.90;99.90
56076;DHT22;41951;49.022;12.066;2023-05-07T02:01:48;11.90;99.90
56076;DHT22;41951;49.022;12.066;2023-05-07T02:04:14;11.90;99.90
56076;DHT22;41951;49.022;12.066;2023-05-07T02:06:40;12.00;99.90
56076;DHT22;41951;49.022;12.066;2023-05-07T02:09:05;12.00;99.90
56076;DHT22;41951;49.022;12.066;2023-05-07T02:11:31;12.00;99.90
56076;DHT22;41951;49.022;12.066;2023-05-07T02:13:57;12.00;99.90
56076;DHT22;41951;49.022;12.066;2023-05-07T02:16:22;12.00;99.90
56076;DHT22;41951;49.022;12.066;2023-05-07T02:18:49;12.00;99.90
56076;DHT22;41951;49.022;12.066;2023-05-07T02:21:15;11.90;99.90
56076;DHT22;41951;49.022;12.066;2023-05-07T02:23:40;11.90;99.90
56076;DHT22;41951;49.022;12.066;2023-05-07T02:26:06;12.00;99.90
56076;DHT22;41951;49.022;12.066;2023-05-07T02:28:32;12.00;99.90
56076;DHT22;41951;49.022;12.066;2023-05-07T02:30:58;12.10;99.90
56076;DHT22;41951;49.022;12.066;2023-05-07T02:33:25;12.10;99.90
56076;DHT22;41951;49.022;12.066;2023-05-07T02:35:51;12.20;99.90
56076;DHT22;41951;49.022;12.066;2023-05-07T02:38:17;12.20;99.90
56076;DHT22;41951;49.022;12.066;2023-05-07T02:40:43;12.30;99.90
56076;DHT22;41951;49.022;12.066;2023-05-07T02:43:09;12.30;99.90
56076;DHT22;41951;49.022;12.066;2023-05-07T02:45:34;12.30;99.90
56076;DHT22;41951;49.022;12.066;2023-05-07T02:48:01;12.40;99.90
56076;DHT22;41951;49.022;12.066;2023-05-07T02:50:27;12.40;99.90
56076;DHT22;41951;49.022;12.066;2023-05-07T02:52:52;12.50;99.90
56076;DHT22;41951;49.022;12.066;2023-05-07T02:55:18;12.50;99.90
56076;DHT22;41951;49.022;12.066;2023-05-07T02:57:43;12.50;99.90
56076;DHT22;41951;49.022;12.066;2023-05-07T03:00:14;12.50;99.90
56076;DHT22;41951;49.022;12.066;2023-05-07T03:02:39;12.50;99.90
56076;DHT22;41951;49.022;12.066;2023-05-07T03:05:06;12.40;99.90
56076;DHT22;41951;49.022;12.066;2023-05-07T03:07:32;12.30;99.90
56076;DHT22;41951;49.022;12.066;2023-05-07T03:09:57;12.10;99.90
56076;DHT22;41951;49.022;12.066;2023-05-07T03:12:23;12.00;99.90
56076;DHT22;41951;49.022;12.066;2023-05-07T03:14:48;11.90;99.90
56076;DHT22;41951;49.022;12.066;2023-05-07T03:17:14;12.00;99.90
56076;DHT22;41951;49.022;12.066;2023-05-07T03:19:41;11.90;99.90
56076;DHT22;41951;49.022;12.066;2023-05-07T03:22:07;11.90;99.90
56076;DHT22;41951;49.022;12.066;2023-05-07T03:24:32;11.80;99.90
56076;DHT22;41951;49.022;12.066;2023-05-07T03:26:58;11.70;99.90
56076;DHT22;41951;49.022;12.066;2023-05-07T03:29:23;11.70;99.90
56076;DHT22;41951;49.022;12.066;2023-05-07T03:31:49;11.70;99.90
56076;DHT22;41951;49.022;12.066;2023-05-07T03:34:15;11.80;99.90
56076;DHT22;41951;49.022;12.066;2023-05-07T03:36:42;11.90;99.90
56076;DHT22;41951;49.022;12.066;2023-05-07T03:39:08;11.90;99.90
56076;DHT22;41951;49.022;12.066;2023-05-07T03:41:33;11.80;99.90
56076;DHT22;41951;49.022;12.066;2023-05-07T03:43:59;11.80;99.90
56076;DHT22;41951;49.022;12.066;2023-05-07T03:46:24;11.90;99.90
56076;DHT22;41951;49.022;12.066;2023-05-07T03:48:51;11.80;99.90
56076;DHT22;41951;49.022;12.066;2023-05-07T03:51:17;11.70;99.90
56076;DHT22;41951;49.022;12.066;2023-05-07T03:53:42;11.70;99.90
56076;DHT22;41951;49.022;12.066;2023-05-07T03:56:08;11.60;99.90
56076;DHT22;41951;49.022;12.066;2023-05-07T03:58:33;11.60;99.90
56076;DHT22;41951;49.022;12.066;2023-05-07T04:00:59;11.50;99.90
56076;DHT22;41951;49.022;12.066;2023-05-07T04:03:25;11.50;99.90
56076;DHT22;41951;49.022;12.066;2023-05-07T04:05:51;11.50;99.90
56076;DHT22;41951;49.022;12.066;2023-05-07T04:08:16;11.50;99.90
56076;DHT22;41951;49.022;12.066;2023-05-07T04:10:42;11.50;99.90
56076;DHT22;41951;49.022;12.066;2023-05-07T04:13:07;11.50;99.90
56076;DHT22;41951;49.022;12.066;2023-05-07T04:15:33;11.60;99.90
56076;DHT22;41951;49.022;12.066;2023-05-07T04:17:58;11.60;99.90
56076;DHT22;41951;49.022;12.066;2023-05-07T04:20:24;11.70;99.90
56076;DHT22;41951;49.022;12.066;2023-05-07T04:22:49;11.60;99.90
56076;DHT22;41951;49.022;12.066;2023-05-07T04:25:16;11.70;99.90
56076;DHT22;41951;49.022;12.066;2023-05-07T04:27:41;11.70;99.90
56076;DHT22;41951;49.022;12.066;2023-05-07T04:30:07;11.80;99.90
56076;DHT22;41951;49.022;12.066;2023-05-07T04:32:33;11.80;99.90
56076;DHT22;41951;49.022;12.066;2023-05-07T04:34:59;11.80;99.90
56076;DHT22;41951;49.022;12.066;2023-05-07T04:37:25;11.80;99.90
56076;DHT22;41951;49.022;12.066;2023-05-07T04:39:51;12.00;99.90
56076;DHT22;41951;49.022;12.066;2023-05-07T04:42:17;12.00;99.90
56076;DHT22;41951;49.022;12.066;2023-05-07T04:44:44;12.00;99.90
56076;DHT22;41951;49.022;12.066;2023-05-07T04:47:10;12.10;99.90
56076;DHT22;41951;49.022;12.066;2023-05-07T04:49:37;12.20;99.90
56076;DHT22;41951;49.022;12.066;2023-05-07T04:52:03;12.20;99.90
56076;DHT22;41951;49.022;12.066;2023-05-07T04:54:29;12.30;99.90
56076;DHT22;41951;49.022;12.066;2023-05-07T04:56:55;12.40;99.90
56076;DHT22;41951;49.022;12.066;2023-05-07T04:59:20;12.60;99.90
56076;DHT22;41951;49.022;12.066;2023-05-07T05:01:46;12.70;99.90
56076;DHT22;41951;49.022;12.066;2023-05-07T05:04:12;12.90;99.90
56076;DHT22;41951;49.022;12.066;2023-05-07T05:06:38;13.00;99.90
56076;DHT22;41951;49.022;12.066;2023-05-07T05:09:04;13.20;99.90
56076;DHT22;41951;49.022;12.066;2023-05-07T05:11:30;13.40;99.90
56076;DHT22;41951;49.022;12.066;2023-05-07T05:13:56;13.50;99.90
56076;DHT22;41951;49.022;12.066;2023-05-07T05:16:22;13.50;99.90
56076;DHT22;41951;49.022;12.066;2023-05-07T05:18:47;13.60;99.90
56076;DHT22;41951;49.022;12.066;2023-05-07T05:21:13;13.60;99.90
56076;DHT22;41951;49.022;12.066;2023-05-07T05:23:38;13.70;99.90
56076;DHT22;41951;49.022;12.066;2023-05-07T05:26:04;13.70;99.90
56076;DHT22;41951;49.022;12.066;2023-05-07T05:28:30;13.80;99.90
56076;DHT22;41951;49.022;12.066;2023-05-07T05:30:55;13.80;99.90
56076;DHT22;41951;49.022;12.066;2023-05-07T05:33:21;13.80;99.90
56076;DHT22;41951;49.022;12.066;2023-05-07T05:35:46;13.80;99.90
56076;DHT22;41951;49.022;12.066;2023-05-07T05:38:12;13.80;99.90
56076;DHT22;41951;49.022;12.066;2023-05-07T05:40:38;13.80;99.90
56076;DHT22;41951;49.022;12.066;2023-05-07T05:43:03;13.90;99.90
56076;DHT22;41951;49.022;12.066;2023-05-07T05:45:29;14.10;99.90
56076;DHT22;41951;49.022;12.066;2023-05-07T05:47:56;14.10;99.90
56076;DHT22;41951;49.022;12.066;2023-05-07T05:50:22;14.30;99.90
56076;DHT22;41951;49.022;12.066;2023-05-07T05:52:47;14.30;99.90
56076;DHT22;41951;49.022;12.066;2023-05-07T05:55:13;14.40;99.90
56076;DHT22;41951;49.022;12.066;2023-05-07T05:57:39;14.30;99.90
56076;DHT22;41951;49.022;12.066;2023-05-07T06:00:06;14.30;99.90
56076;DHT22;41951;49.022;12.066;2023-05-07T06:02:31;14.40;99.90
56076;DHT22;41951;49.022;12.066;2023-05-07T06:04:57;14.40;99.90
56076;DHT22;41951;49.022;12.066;2023-05-07T06:07:23;14.40;99.90
56076;DHT22;41951;49.022;12.066;2023-05-07T06:09:48;14.50;99.90
56076;DHT22;41951;49.022;12.066;2023-05-07T06:12:14;14.60;99.90
56076;DHT22;41951;49.022;12.066;2023-05-07T06:14:39;14.70;99.90
56076;DHT22;41951;49.022;12.066;2023-05-07T06:17:06;14.80;99.90
56076;DHT22;41951;49.022;12.066;2023-05-07T06:19:32;14.80;99.90
56076;DHT22;41951;49.022;12.066;2023-05-07T06:21:57;14.90;99.90
56076;DHT22;41951;49.022;12.066;2023-05-07T06:24:24;15.00;99.90
56076;DHT22;41951;49.022;12.066;2023-05-07T06:26:49;15.00;99.90
56076;DHT22;41951;49.022;12.066;2023-05-07T06:29:15;15.10;99.90
56076;DHT22;41951;49.022;12.066;2023-05-07T06:31:41;15.10;99.90
56076;DHT22;41951;49.022;12.066;2023-05-07T06:34:07;15.20;99.90
56076;DHT22;41951;49.022;12.066;2023-05-07T06:36:32;15.30;99.90
56076;DHT22;41951;49.022;12.066;2023-05-07T06:38:58;15.40;99.90
56076;DHT22;41951;49.022;12.066;2023-05-07T06:41:23;15.50;99.90
56076;DHT22;41951;49.022;12.066;2023-05-07T06:43:49;15.60;99.90
56076;DHT22;41951;49.022;12.066;2023-05-07T06:46:15;15.70;99.90
56076;DHT22;41951;49.022;12.066;2023-05-07T06:48:40;15.80;99.90
56076;DHT22;41951;49.022;12.066;2023-05-07T06:51:06;15.80;99.90
56076;DHT22;41951;49.022;12.066;2023-05-07T06:53:31;15.90;99.90
56076;DHT22;41951;49.022;12.066;2023-05-07T06:55:57;15.90;99.90
56076;DHT22;41951;49.022;12.066;2023-05-07T06:58:23;15.90;99.90
56076;DHT22;41951;49.022;12.066;2023-05-07T07:00:48;15.90;99.90
56076;DHT22;41951;49.022;12.066;2023-05-07T07:03:14;15.90;99.90
56076;DHT22;41951;49.022;12.066;2023-05-07T07:05:43;15.90;99.90
56076;DHT22;41951;49.022;12.066;2023-05-07T07:08:09;15.80;99.90
56076;DHT22;41951;49.022;12.066;2023-05-07T07:10:35;15.80;99.90
56076;DHT22;41951;49.022;12.066;2023-05-07T07:13:00;15.80;99.90
56076;DHT22;41951;49.022;12.066;2023-05-07T07:15:26;15.90;99.90
56076;DHT22;41951;49.022;12.066;2023-05-07T07:17:52;15.90;99.90
56076;DHT22;41951;49.022;12.066;2023-05-07T07:20:17;16.00;99.90
56076;DHT22;41951;49.022;12.066;2023-05-07T07:22:43;16.00;99.90
56076;DHT22;41951;49.022;12.066;2023-05-07T07:25:09;16.10;99.90
56076;DHT22;41951;49.022;12.066;2023-05-07T07:27:35;16.10;99.90
56076;DHT22;41951;49.022;12.066;2023-05-07T07:30:01;16.20;99.90
56076;DHT22;41951;49.022;12.066;2023-05-07T07:32:26;16.20;99.90
56076;DHT22;41951;49.022;12.066;2023-05-07T07:34:52;16.30;99.90
56076;DHT22;41951;49.022;12.066;2023-05-07T07:37:17;16.30;99.90
56076;DHT22;41951;49.022;12.066;2023-05-07T07:39:43;16.30;99.90
56076;DHT22;41951;49.022;12.066;2023-05-07T07:42:09;16.30;99.90
56076;DHT22;41951;49.022;12.066;2023-05-07T07:44:34;16.30;99.90
56076;DHT22;41951;49.022;12.066;2023-05-07T07:47:00;16.50;99.90
56076;DHT22;41951;49.022;12.066;2023-05-07T07:49:26;16.50;99.90
56076;DHT22;41951;49.022;12.066;2023-05-07T07:51:52;16.60;99.90
56076;DHT22;41951;49.022;12.066;2023-05-07T07:54:18;16.70;99.90
56076;DHT22;41951;49.022;12.066;2023-05-07T07:56:43;16.80;99.90
56076;DHT22;41951;49.022;12.066;2023-05-07T07:59:09;16.90;99.90
56076;DHT22;41951;49.022;12.066;2023-05-07T08:01:34;17.10;99.90
56076;DHT22;41951;49.022;12.066;2023-05-07T08:04:00;17.30;99.90
56076;DHT22;41951;49.022;12.066;2023-05-07T08:06:28;17.60;99.90
56076;DHT22;41951;49.022;12.066;2023-05-07T08:08:54;17.80;99.90
56076;DHT22;41951;49.022;12.066;2023-05-07T08:11:19;17.80;99.90
56076;DHT22;41951;49.022;12.066;2023-05-07T08:13:46;17.80;99.90
56076;DHT22;41951;49.022;12.066;2023-05-07T08:16:12;17.70;99.90
56076;DHT22;41951;49.022;12.066;2023-05-07T08:18:38;17.50;99.90
56076;DHT22;41951;49.022;12.066;2023-05-07T08:21:04;17.50;99.90
56076;DHT22;41951;49.022;12.066;2023-05-07T08:23:29;17.50;99.90
56076;DHT22;41951;49.022;12.066;2023-05-07T08:25:55;17.70;99.90
56076;DHT22;41951;49.022;12.066;2023-05-07T08:28:21;17.90;99.90
56076;DHT22;41951;49.022;12.066;2023-05-07T08:30:47;18.00;99.90
56076;DHT22;41951;49.022;12.066;2023-05-07T08:33:12;18.00;99.90
56076;DHT22;41951;49.022;12.066;2023-05-07T08:35:38;18.10;99.90
56076;DHT22;41951;49.022;12.066;2023-05-07T08:38:04;18.20;99.90
56076;DHT22;41951;49.022;12.066;2023-05-07T08:40:35;18.10;99.90
56076;DHT22;41951;49.022;12.066;2023-05-07T08:43:02;18.20;99.90
56076;DHT22;41951;49.022;12.066;2023-05-07T08:45:28;18.20;99.90
56076;DHT22;41951;49.022;12.066;2023-05-07T08:48:01;18.30;99.90
56076;DHT22;41951;49.022;12.066;2023-05-07T08:50:27;18.20;99.90
56076;DHT22;41951;49.022;12.066;2023-05-07T08:52:53;18.10;99.90
56076;DHT22;41951;49.022;12.066;2023-05-07T08:55:20;18.10;99.90
56076;DHT22;41951;49.022;12.066;2023-05-07T08:57:45;18.10;99.90
56076;DHT22;41951;49.022;12.066;2023-05-07T09:00:12;18.20;99.90
56076;DHT22;41951;49.022;12.066;2023-05-07T09:02:38;18.20;99.90
56076;DHT22;41951;49.022;12.066;2023-05-07T09:05:04;18.30;99.90
56076;DHT22;41951;49.022;12.066;2023-05-07T09:07:30;18.40;99.90
56076;DHT22;41951;49.022;12.066;2023-05-07T09:09:56;18.50;99.90
56076;DHT22;41951;49.022;12.066;2023-05-07T09:12:25;18.50;99.90
56076;DHT22;41951;49.022;12.066;2023-05-07T09:14:50;18.60;99.90
56076;DHT22;41951;49.022;12.066;2023-05-07T09:17:16;18.60;99.90
56076;DHT22;41951;49.022;12.066;2023-05-07T09:19:44;18.60;99.90
56076;DHT22;41951;49.022;12.066;2023-05-07T09:22:10;18.60;99.90
56076;DHT22;41951;49.022;12.066;2023-05-07T09:24:37;18.60;99.90
56076;DHT22;41951;49.022;12.066;2023-05-07T09:27:06;18.60;99.90
56076;DHT22;41951;49.022;12.066;2023-05-07T09:29:33;18.80;99.90
56076;DHT22;41951;49.022;12.066;2023-05-07T09:32:03;18.90;99.90
56076;DHT22;41951;49.022;12.066;2023-05-07T09:34:30;18.90;99.90
56076;DHT22;41951;49.022;12.066;2023-05-07T09:36:57;18.90;99.90
56076;DHT22;41951;49.022;12.066;2023-05-07T09:39:24;19.00;99.90
56076;DHT22;41951;49.022;12.066;2023-05-07T09:41:49;19.00;99.90
56076;DHT22;41951;49.022;12.066;2023-05-07T09:44:17;19.20;99.90
56076;DHT22;41951;49.022;12.066;2023-05-07T09:46:43;19.30;99.90
56076;DHT22;41951;49.022;12.066;2023-05-07T09:49:17;19.40;99.90
56076;DHT22;41951;49.022;12.066;2023-05-07T09:51:51;19.70;99.90
56076;DHT22;41951;49.022;12.066;2023-05-07T09:54:17;19.80;99.90
56076;DHT22;41951;49.022;12.066;2023-05-07T09:56:48;19.90;99.90
56076;DHT22;41951;49.022;12.066;2023-05-07T09:59:15;20.00;99.90
56076;DHT22;41951;49.022;12.066;2023-05-07T10:01:43;20.10;99.90
56076;DHT22;41951;49.022;12.066;2023-05-07T10:04:09;20.10;99.90
56076;DHT22;41951;49.022;12.066;2023-05-07T10:06:35;20.00;99.90
56076;DHT22;41951;49.022;12.066;2023-05-07T10:09:02;20.00;99.90
56076;DHT22;41951;49.022;12.066;2023-05-07T10:11:28;20.10;99.90
56076;DHT22;41951;49.022;12.066;2023-05-07T10:13:54;20.10;99.90
56076;DHT22;41951;49.022;12.066;2023-05-07T10:16:21;19.90;99.90
56076;DHT22;41951;49.022;12.066;2023-05-07T10:18:47;19.90;99.90
56076;DHT22;41951;49.022;12.066;2023-05-07T10:21:18;19.90;99.90
56076;DHT22;41951;49.022;12.066;2023-05-07T10:23:57;20.10;99.90
56076;DHT22;41951;49.022;12.066;2023-05-07T10:26:24;20.30;99.90
56076;DHT22;41951;49.022;12.066;2023-05-07T10:28:55;20.40;99.90
56076;DHT22;41951;49.022;12.066;2023-05-07T10:31:50;20.20;99.90
56076;DHT22;41951;49.022;12.066;2023-05-07T10:34:22;20.40;99.90
56076;DHT22;41951;49.022;12.066;2023-05-07T10:36:48;20.40;99.90
56076;DHT22;41951;49.022;12.066;2023-05-07T10:39:15;20.20;99.90
56076;DHT22;41951;49.022;12.066;2023-05-07T10:41:40;20.30;99.90
56076;DHT22;41951;49.022;12.066;2023-05-07T10:44:06;20.40;99.90
56076;DHT22;41951;49.022;12.066;2023-05-07T10:46:32;20.40;99.90
56076;DHT22;41951;49.022;12.066;2023-05-07T10:51:26;20.50;99.90
56076;DHT22;41951;49.022;12.066;2023-05-07T10:56:42;20.90;99.90
56076;DHT22;41951;49.022;12.066;2023-05-07T11:02:00;21.00;99.90
56076;DHT22;41951;49.022;12.066;2023-05-07T11:04:31;21.10;99.90
56076;DHT22;41951;49.022;12.066;2023-05-07T11:07:21;21.00;99.90
56076;DHT22;41951;49.022;12.066;2023-05-07T11:10:04;21.10;99.90
56076;DHT22;41951;49.022;12.066;2023-05-07T11:15:12;21.30;99.90
56076;DHT22;41951;49.022;12.066;2023-05-07T11:17:59;21.30;99.90
56076;DHT22;41951;49.022;12.066;2023-05-07T11:20:47;21.40;99.90
56076;DHT22;41951;49.022;12.066;2023-05-07T11:26:06;21.30;99.90
56076;DHT22;41951;49.022;12.066;2023-05-07T11:28:37;21.20;99.90
56076;DHT22;41951;49.022;12.066;2023-05-07T11:31:03;21.30;99.90
56076;DHT22;41951;49.022;12.066;2023-05-07T11:33:32;21.40;99.90
56076;DHT22;41951;49.022;12.066;2023-05-07T11:35:59;21.50;99.90
56076;DHT22;41951;49.022;12.066;2023-05-07T11:38:25;21.40;99.90
56076;DHT22;41951;49.022;12.066;2023-05-07T11:40:52;21.30;99.90
56076;DHT22;41951;49.022;12.066;2023-05-07T11:43:19;21.20;99.90
56076;DHT22;41951;49.022;12.066;2023-05-07T11:45:45;21.20;99.90
56076;DHT22;41951;49.022;12.066;2023-05-07T11:48:12;21.00;99.90
56076;DHT22;41951;49.022;12.066;2023-05-07T11:50:50;21.00;99.90
56076;DHT22;41951;49.022;12.066;2023-05-07T11:53:17;21.00;99.90
56076;DHT22;41951;49.022;12.066;2023-05-07T11:55:43;20.90;99.90
56076;DHT22;41951;49.022;12.066;2023-05-07T11:58:12;20.90;99.90
56076;DHT22;41951;49.022;12.066;2023-05-07T12:00:37;20.80;99.90
56076;DHT22;41951;49.022;12.066;2023-05-07T12:03:04;20.60;99.90
56076;DHT22;41951;49.022;12.066;2023-05-07T12:05:30;20.60;99.90
56076;DHT22;41951;49.022;12.066;2023-05-07T12:07:57;20.60;99.90
56076;DHT22;41951;49.022;12.066;2023-05-07T12:10:23;20.50;99.90
56076;DHT22;41951;49.022;12.066;2023-05-07T12:12:50;20.50;99.90
56076;DHT22;41951;49.022;12.066;2023-05-07T12:15:17;20.40;99.90
56076;DHT22;41951;49.022;12.066;2023-05-07T12:17:43;20.40;99.90
56076;DHT22;41951;49.022;12.066;2023-05-07T12:20:09;20.40;99.90
56076;DHT22;41951;49.022;12.066;2023-05-07T12:22:36;20.60;99.90
56076;DHT22;41951;49.022;12.066;2023-05-07T12:25:02;20.90;99.90
56076;DHT22;41951;49.022;12.066;2023-05-07T12:27:28;21.20;99.90
56076;DHT22;41951;49.022;12.066;2023-05-07T12:29:54;21.30;99.90
56076;DHT22;41951;49.022;12.066;2023-05-07T12:32:20;21.50;99.90
56076;DHT22;41951;49.022;12.066;2023-05-07T12:34:49;21.70;99.90
56076;DHT22;41951;49.022;12.066;2023-05-07T12:37:23;22.00;99.90
56076;DHT22;41951;49.022;12.066;2023-05-07T12:40:06;22.10;99.90
56076;DHT22;41951;49.022;12.066;2023-05-07T12:42:35;22.30;99.90
56076;DHT22;41951;49.022;12.066;2023-05-07T12:45:08;22.50;99.90
56076;DHT22;41951;49.022;12.066;2023-05-07T12:47:34;22.60;99.90
56076;DHT22;41951;49.022;12.066;2023-05-07T12:49:59;22.70;99.90
56076;DHT22;41951;49.022;12.066;2023-05-07T12:52:25;22.90;99.90
56076;DHT22;41951;49.022;12.066;2023-05-07T12:54:51;22.90;99.90
56076;DHT22;41951;49.022;12.066;2023-05-07T12:57:19;23.10;99.90
56076;DHT22;41951;49.022;12.066;2023-05-07T12:59:45;23.00;99.90
56076;DHT22;41951;49.022;12.066;2023-05-07T13:02:11;23.10;99.90
56076;DHT22;41951;49.022;12.066;2023-05-07T13:04:40;23.10;99.90
56076;DHT22;41951;49.022;12.066;2023-05-07T13:07:05;23.30;99.90
56076;DHT22;41951;49.022;12.066;2023-05-07T13:09:31;23.40;99.90
56076;DHT22;41951;49.022;12.066;2023-05-07T13:11:57;23.40;99.90
56076;DHT22;41951;49.022;12.066;2023-05-07T13:14:26;23.50;99.90
56076;DHT22;41951;49.022;12.066;2023-05-07T13:16:52;23.60;99.90
56076;DHT22;41951;49.022;12.066;2023-05-07T13:19:17;23.70;99.90
56076;DHT22;41951;49.022;12.066;2023-05-07T13:21:43;23.80;99.70
56076;DHT22;41951;49.022;12.066;2023-05-07T13:24:16;23.80;99.50
56076;DHT22;41951;49.022;12.066;2023-05-07T13:26:41;23.90;98.80
56076;DHT22;41951;49.022;12.066;2023-05-07T13:29:07;24.00;98.50
56076;DHT22;41951;49.022;12.066;2023-05-07T13:31:33;24.20;98.30
56076;DHT22;41951;49.022;12.066;2023-05-07T13:33:59;24.30;98.00
56076;DHT22;41951;49.022;12.066;2023-05-07T13:36:24;24.30;97.10
56076;DHT22;41951;49.022;12.066;2023-05-07T13:38:50;24.30;96.90
56076;DHT22;41951;49.022;12.066;2023-05-07T13:41:16;24.40;96.90
56076;DHT22;41951;49.022;12.066;2023-05-07T13:43:42;24.50;96.40
56076;DHT22;41951;49.022;12.066;2023-05-07T13:46:08;24.40;96.00
56076;DHT22;41951;49.022;12.066;2023-05-07T13:48:33;24.50;95.70
56076;DHT22;41951;49.022;12.066;2023-05-07T13:50:59;24.40;95.10
56076;DHT22;41951;49.022;12.066;2023-05-07T13:53:25;24.50;94.90
56076;DHT22;41951;49.022;12.066;2023-05-07T13:55:50;24.60;94.60
56076;DHT22;41951;49.022;12.066;2023-05-07T13:58:16;24.70;94.10
56076;DHT22;41951;49.022;12.066;2023-05-07T14:00:41;24.70;93.80
56076;DHT22;41951;49.022;12.066;2023-05-07T14:03:07;24.80;92.70
56076;DHT22;41951;49.022;12.066;2023-05-07T14:05:32;24.20;92.50
56076;DHT22;41951;49.022;12.066;2023-05-07T14:07:58;24.30;92.30
56076;DHT22;41951;49.022;12.066;2023-05-07T14:10:24;24.30;91.50
56076;DHT22;41951;49.022;12.066;2023-05-07T14:12:50;24.50;91.60
56076;DHT22;41951;49.022;12.066;2023-05-07T14:15:16;24.80;91.40
56076;DHT22;41951;49.022;12.066;2023-05-07T14:17:42;25.10;90.60
56076;DHT22;41951;49.022;12.066;2023-05-07T14:20:08;25.30;90.10
56076;DHT22;41951;49.022;12.066;2023-05-07T14:22:35;25.40;88.60
56076;DHT22;41951;49.022;12.066;2023-05-07T14:25:00;25.40;88.60
56076;DHT22;41951;49.022;12.066;2023-05-07T14:27:26;25.40;87.70
56076;DHT22;41951;49.022;12.066;2023-05-07T14:29:51;25.30;87.70
56076;DHT22;41951;49.022;12.066;2023-05-07T14:32:17;25.20;87.00
56076;DHT22;41951;49.022;12.066;2023-05-07T14:34:44;24.80;86.20
56076;DHT22;41951;49.022;12.066;2023-05-07T14:37:09;24.90;87.10
56076;DHT22;41951;49.022;12.066;2023-05-07T14:39:35;24.90;87.30
56076;DHT22;41951;49.022;12.066;2023-05-07T14:42:01;25.20;86.80
56076;DHT22;41951;49.022;12.066;2023-05-07T14:44:27;25.10;85.60
56076;DHT22;41951;49.022;12.066;2023-05-07T14:46:53;25.10;85.70
56076;DHT22;41951;49.022;12.066;2023-05-07T14:49:19;24.90;85.80
56076;DHT22;41951;49.022;12.066;2023-05-07T14:51:45;24.90;85.80
56076;DHT22;41951;49.022;12.066;2023-05-07T14:54:11;24.90;85.90
56076;DHT22;41951;49.022;12.066;2023-05-07T14:56:37;24.90;85.70
56076;DHT22;41951;49.022;12.066;2023-05-07T14:59:03;25.00;85.40
56076;DHT22;41951;49.022;12.066;2023-05-07T15:01:29;25.00;86.00
56076;DHT22;41951;49.022;12.066;2023-05-07T15:03:55;24.70;85.50
56076;DHT22;41951;49.022;12.066;2023-05-07T15:06:21;24.40;85.60
56076;DHT22;41951;49.022;12.066;2023-05-07T15:08:46;24.50;87.00
56076;DHT22;41951;49.022;12.066;2023-05-07T15:11:13;24.40;87.60
56076;DHT22;41951;49.022;12.066;2023-05-07T15:13:42;24.00;88.30
56076;DHT22;41951;49.022;12.066;2023-05-07T15:16:07;23.80;89.80
56076;DHT22;41951;49.022;12.066;2023-05-07T15:18:33;23.70;90.00
56076;DHT22;41951;49.022;12.066;2023-05-07T15:20:58;23.40;90.60
56076;DHT22;41951;49.022;12.066;2023-05-07T15:23:24;23.50;90.80
56076;DHT22;41951;49.022;12.066;2023-05-07T15:25:50;23.10;91.20